Time;durP1;ratioP1;P1;durP2;ratioP2;P2;SDS_P1;SDS_P2;PMS_P1;PMS_P2;Temp;Humidity;BMP_temperature;BMP_pressure;BME280_temperature;BME280_humidity;BME280_pressure;Samples;Min_cycle;Max_cycle;Signal;HPM_P1;HPM_P2
2022/04/18 00:02:22;;;;;;;5.72;2.38;;;6.00;68.80;;;;;;5014760;28;20041;-71
2022/04/18 00:04:48;;;;;;;6.28;2.78;;;5.90;68.70;;;;;;5014794;28;20026;-70
2022/04/18 00:07:14;;;;;;;6.50;2.42;;;5.90;68.90;;;;;;5013676;28;20148;-71
2022/04/18 00:09:40;;;;;;;5.75;2.72;;;5.90;68.60;;;;;;5013368;28;20559;-71
2022/04/18 00:12:07;;;;;;;5.70;2.60;;;6.00;67.30;;;;;;5014757;28;20032;-70
2022/04/18 00:14:34;;;;;;;5.90;2.70;;;6.00;68.90;;;;;;5014069;28;20465;-71
2022/04/18 00:17:00;;;;;;;5.20;2.90;;;5.90;68.90;;;;;;5014232;28;20068;-70
2022/04/18 00:19:25;;;;;;;6.32;3.05;;;5.90;67.80;;;;;;5014243;28;20026;-71
2022/04/18 00:21:51;;;;;;;6.70;2.90;;;6.00;68.50;;;;;;5014601;28;20033;-70
2022/04/18 00:24:20;;;;;;;10.55;5.32;;;5.90;68.20;;;;;;5013861;28;20087;-70
2022/04/18 00:26:47;;;;;;;10.57;4.20;;;5.90;68.40;;;;;;5013855;28;20029;-72
2022/04/18 00:29:14;;;;;;;8.35;3.63;;;6.00;67.50;;;;;;5013610;28;20062;-70
2022/04/18 00:31:40;;;;;;;4.75;2.90;;;6.20;66.80;;;;;;5014025;28;20056;-70
2022/04/18 00:34:06;;;;;;;8.93;3.72;;;6.20;66.80;;;;;;5014184;28;20026;-68
2022/04/18 00:36:32;;;;;;;7.38;3.28;;;6.20;67.10;;;;;;5029145;28;20077;-68
2022/04/18 00:38:59;;;;;;;8.93;3.53;;;6.30;66.80;;;;;;5013885;28;20057;-71
2022/04/18 00:41:25;;;;;;;9.15;4.03;;;6.20;67.30;;;;;;5012486;28;20034;-71
2022/04/18 00:43:51;;;;;;;9.20;3.38;;;6.20;68.30;;;;;;5029107;28;20032;-70
2022/04/18 00:46:20;;;;;;;16.27;5.05;;;6.10;69.00;;;;;;5012372;28;20163;-71
2022/04/18 00:48:47;;;;;;;7.72;3.10;;;5.90;69.50;;;;;;5013643;28;20117;-69
2022/04/18 00:51:15;;;;;;;18.27;4.35;;;5.90;69.20;;;;;;5028860;28;20057;-70
2022/04/18 00:53:43;;;;;;;8.73;2.97;;;5.90;69.80;;;;;;5013685;28;20042;-70
2022/04/18 00:56:12;;;;;;;9.93;3.05;;;5.90;69.10;;;;;;5013529;28;20026;-70
2022/04/18 00:58:41;;;;;;;10.70;4.70;;;5.90;68.80;;;;;;5028703;28;20022;-70
2022/04/18 01:01:07;;;;;;;20.58;6.80;;;5.80;69.30;;;;;;5013627;28;20032;-70
2022/04/18 01:03:33;;;;;;;11.60;4.68;;;5.70;69.80;;;;;;5011963;28;20603;-70
2022/04/18 01:06:00;;;;;;;14.63;5.43;;;5.70;69.80;;;;;;5012102;28;20472;-66
2022/04/18 01:08:28;;;;;;;10.75;3.75;;;5.70;70.60;;;;;;5028446;28;20026;-71
2022/04/18 01:10:54;;;;;;;12.90;5.40;;;5.60;70.20;;;;;;5027999;28;20116;-70
2022/04/18 01:13:27;;;;;;;13.20;5.85;;;5.70;70.10;;;;;;5028242;28;20460;-70
2022/04/18 01:16:16;;;;;;;10.02;4.57;;;5.70;70.70;;;;;;5012796;28;20056;-71
2022/04/18 01:18:57;;;;;;;9.93;3.95;;;5.70;70.20;;;;;;5027756;28;20121;-70
2022/04/18 01:21:46;;;;;;;12.57;4.88;;;5.70;70.70;;;;;;5001074;28;20197;-70
2022/04/18 01:30:03;;;;;;;7.40;3.15;;;5.30;72.50;;;;;;4986225;28;20046;-72
2022/04/18 01:32:30;;;;;;;9.27;3.35;;;5.30;72.70;;;;;;5008633;28;20408;-71
2022/04/18 01:34:57;;;;;;;9.90;3.47;;;5.20;73.10;;;;;;4999076;28;20026;-69
2022/04/18 01:37:24;;;;;;;8.10;3.08;;;5.10;73.30;;;;;;5006436;28;20071;-70
2022/04/18 01:39:50;;;;;;;6.70;3.53;;;4.90;73.50;;;;;;4985463;28;20081;-70
2022/04/18 01:42:16;;;;;;;6.57;2.83;;;4.80;73.80;;;;;;5003713;28;20503;-69
2022/04/18 01:44:42;;;;;;;6.97;2.90;;;4.90;73.90;;;;;;4998592;28;20064;-69
2022/04/18 01:47:08;;;;;;;6.07;3.10;;;4.90;74.10;;;;;;4995722;28;20021;-69
2022/04/18 01:49:34;;;;;;;5.97;3.25;;;4.90;74.40;;;;;;5009161;28;20541;-69
2022/04/18 01:52:00;;;;;;;5.78;2.70;;;4.90;74.70;;;;;;4991479;28;20033;-69
2022/04/18 01:54:26;;;;;;;6.22;3.05;;;4.90;74.60;;;;;;4986878;28;20547;-69
2022/04/18 01:56:52;;;;;;;8.60;3.72;;;4.90;74.50;;;;;;4989234;28;20663;-69
2022/04/18 01:59:18;;;;;;;6.90;3.55;;;4.80;74.90;;;;;;5001250;28;20038;-68
2022/04/18 02:01:44;;;;;;;7.07;3.38;;;4.70;75.10;;;;;;5011209;28;20120;-70
2022/04/18 02:04:10;;;;;;;9.68;3.63;;;4.80;75.20;;;;;;5002088;28;20026;-70
2022/04/18 02:06:36;;;;;;;12.52;5.60;;;4.80;75.70;;;;;;4996369;28;20034;-66
2022/04/18 02:09:02;;;;;;;9.45;5.38;;;4.70;76.10;;;;;;5014354;28;20069;-66
2022/04/18 02:11:28;;;;;;;12.65;5.60;;;4.60;76.60;;;;;;4991559;28;20374;-64
2022/04/18 02:13:56;;;;;;;11.18;4.60;;;4.40;77.30;;;;;;4991631;28;20503;-69
2022/04/18 02:16:23;;;;;;;12.50;4.85;;;4.40;78.70;;;;;;4991586;28;20022;-70
2022/04/18 02:18:52;;;;;;;8.02;3.90;;;4.40;78.90;;;;;;4991250;28;20030;-70
2022/04/18 02:21:19;;;;;;;9.60;3.65;;;4.50;78.20;;;;;;4992578;28;20465;-70
2022/04/18 02:23:46;;;;;;;6.53;3.78;;;4.40;79.00;;;;;;4990956;28;20134;-69
2022/04/18 02:26:12;;;;;;;9.15;4.22;;;4.40;79.50;;;;;;4992130;28;20117;-69
2022/04/18 02:28:40;;;;;;;7.88;3.58;;;4.30;80.50;;;;;;4991093;28;20066;-69
2022/04/18 02:31:10;;;;;;;7.00;3.83;;;4.30;80.70;;;;;;4991152;28;20397;-69
2022/04/18 02:33:36;;;;;;;16.35;3.80;;;4.20;81.00;;;;;;5006361;28;20022;-66
2022/04/18 02:36:02;;;;;;;11.85;4.35;;;4.20;81.90;;;;;;5002541;28;20202;-66
2022/04/18 02:38:28;;;;;;;8.77;4.07;;;4.20;82.70;;;;;;4987488;28;20157;-66
2022/04/18 02:40:54;;;;;;;10.52;4.82;;;4.00;85.10;;;;;;5005645;28;20023;-66
2022/04/18 02:43:21;;;;;;;7.85;3.97;;;3.90;86.70;;;;;;4987954;28;20026;-67
2022/04/18 02:45:52;;;;;;;9.25;4.55;;;3.80;89.20;;;;;;5004472;28;20096;-67
2022/04/18 02:48:42;;;;;;;7.80;4.20;;;3.70;90.80;;;;;;5006332;28;20038;-68
2022/04/18 02:51:09;;;;;;;15.32;4.88;;;3.80;91.60;;;;;;5004244;28;20050;-67
2022/04/18 02:53:35;;;;;;;8.88;4.65;;;3.80;92.20;;;;;;5003170;28;20030;-67
2022/04/18 02:56:06;;;;;;;7.65;4.10;;;3.70;93.90;;;;;;4990217;28;20030;-69
2022/04/18 02:58:36;;;;;;;10.27;4.28;;;3.70;95.80;;;;;;5006285;28;20031;-69
2022/04/18 03:01:02;;;;;;;7.18;3.83;;;3.70;96.30;;;;;;4990127;28;20425;-69
2022/04/18 03:03:29;;;;;;;10.65;4.07;;;3.70;97.20;;;;;;4991883;28;20384;-71
2022/04/18 03:05:55;;;;;;;10.23;3.40;;;3.70;97.00;;;;;;5006519;28;20177;-67
2022/04/18 03:08:21;;;;;;;12.40;4.57;;;3.60;97.40;;;;;;5006179;28;20030;-68
2022/04/18 03:11:03;;;;;;;9.48;4.30;;;3.60;97.90;;;;;;4990935;28;20037;-69
2022/04/18 03:13:32;;;;;;;8.70;4.53;;;3.40;98.60;;;;;;5005862;28;20393;-69
2022/04/18 03:15:59;;;;;;;9.55;4.43;;;3.50;99.50;;;;;;4996678;28;20026;-69
2022/04/18 03:18:26;;;;;;;7.20;4.10;;;3.50;99.90;;;;;;5009580;28;20030;-69
2022/04/18 03:20:53;;;;;;;12.18;4.35;;;3.50;99.80;;;;;;5025342;28;20030;-68
2022/04/18 03:23:18;;;;;;;8.50;4.40;;;3.50;99.50;;;;;;5010420;28;20022;-71
2022/04/18 03:26:07;;;;;;;8.73;3.80;;;3.50;99.60;;;;;;5009194;28;20500;-71
2022/04/18 03:28:59;;;;;;;13.27;4.65;;;3.30;99.90;;;;;;5009632;28;20095;-71
2022/04/18 03:31:25;;;;;;;8.73;4.53;;;3.20;99.90;;;;;;5009290;28;20034;-71
2022/04/18 03:33:51;;;;;;;7.70;4.18;;;3.30;99.90;;;;;;5007402;28;20033;-71
2022/04/18 03:41:48;;;;;;;7.35;4.00;;;3.10;99.90;;;;;;5014830;28;20041;-69
2022/04/18 03:44:17;;;;;;;8.57;3.75;;;3.10;99.90;;;;;;5031786;28;20496;-70
2022/04/18 03:46:43;;;;;;;7.85;3.92;;;3.20;99.90;;;;;;5031083;28;20488;-70
2022/04/18 03:49:09;;;;;;;5.88;3.45;;;3.20;99.90;;;;;;5015002;28;20073;-70
2022/04/18 03:51:38;;;;;;;7.78;3.63;;;3.20;99.90;;;;;;5014591;28;20045;-70
2022/04/18 03:54:05;;;;;;;12.25;4.68;;;3.10;99.90;;;;;;5015065;28;20037;-69
2022/04/18 03:56:34;;;;;;;8.45;4.15;;;3.10;99.90;;;;;;5014312;28;20075;-71
2022/04/18 03:59:09;;;;;;;9.25;4.57;;;3.00;99.90;;;;;;5031509;28;20044;-69
2022/04/18 04:01:55;;;;;;;12.13;5.30;;;3.00;99.90;;;;;;5030661;28;20065;-71
2022/04/18 04:04:22;;;;;;;5.88;4.32;;;3.10;99.90;;;;;;5014637;28;20037;-70
2022/04/18 04:06:49;;;;;;;9.27;4.60;;;2.90;99.90;;;;;;5014200;28;20028;-72
2022/04/18 04:09:14;;;;;;;13.05;5.47;;;2.90;99.90;;;;;;5014252;28;20045;-71
2022/04/18 04:11:40;;;;;;;7.50;4.20;;;2.90;99.90;;;;;;5014215;28;20037;-71
2022/04/18 04:14:06;;;;;;;9.10;4.95;;;3.30;99.90;;;;;;5014458;28;20033;-70
2022/04/18 04:16:32;;;;;;;5.90;3.60;;;3.80;99.90;;;;;;5001976;28;20036;-72
2022/04/18 04:19:00;;;;;;;11.07;4.07;;;3.30;99.90;;;;;;5028130;28;20026;-70
2022/04/18 04:21:26;;;;;;;9.00;4.15;;;3.00;99.90;;;;;;5013166;28;20028;-71
2022/04/18 04:23:55;;;;;;;6.50;3.97;;;3.10;99.90;;;;;;5028887;28;20431;-71
2022/04/18 04:26:56;;;;;;;8.70;4.05;;;3.20;99.90;;;;;;5030798;28;20060;-71
2022/04/18 04:29:23;;;;;;;7.15;3.75;;;3.80;99.90;;;;;;5014318;28;20045;-73
2022/04/18 04:31:56;;;;;;;;;;;4.00;99.90;;;;;;5014164;28;20678;-71
2022/04/18 04:34:24;;;;;;;8.60;4.30;;;4.80;99.10;;;;;;5030685;28;19928;-71
2022/04/18 04:37:12;;;;;;;9.88;5.97;;;6.10;95.10;;;;;;5015371;28;20436;-73
2022/04/18 04:39:47;;;;;;;10.45;5.68;;;7.30;90.70;;;;;;5015146;28;20026;-73
2022/04/18 04:42:15;;;;;;;9.70;4.93;;;8.20;86.00;;;;;;5014142;28;20038;-72
2022/04/18 04:44:44;;;;;;;7.90;4.95;;;9.10;82.00;;;;;;5026798;28;20084;-73
2022/04/18 04:47:14;;;;;;;11.10;5.80;;;8.90;78.70;;;;;;5009121;28;20034;-73
2022/04/18 04:49:40;;;;;;;10.73;4.55;;;8.40;78.60;;;;;;4993824;28;20407;-72
2022/04/18 04:52:20;;;;;;;7.05;4.30;;;8.90;78.80;;;;;;4994094;28;20041;-73
2022/04/18 04:54:49;;;;;;;9.10;4.65;;;9.40;77.40;;;;;;5010724;28;20049;-71
2022/04/18 04:57:20;;;;;;;9.32;5.43;;;9.40;73.70;;;;;;5013972;28;20021;-73
2022/04/18 05:00:12;;;;;;;10.23;6.70;;;10.40;73.60;;;;;;5022895;28;20434;-73
2022/04/18 05:03:13;;;;;;;9.75;6.57;;;10.40;70.50;;;;;;5010362;28;20092;-73
2022/04/18 05:05:41;;;;;;;10.38;5.10;;;10.90;69.90;;;;;;4993396;28;20034;-72
2022/04/18 05:08:17;;;;;;;7.50;3.80;;;10.90;68.90;;;;;;5010011;28;20033;-73
2022/04/18 05:10:42;;;;;;;7.00;3.70;;;10.40;69.00;;;;;;5009638;28;20050;-72
2022/04/18 05:13:17;;;;;;;10.48;4.43;;;9.20;70.10;;;;;;4993373;28;20129;-73
2022/04/18 05:15:45;;;;;;;10.90;4.93;;;8.50;71.70;;;;;;5009235;28;20036;-73
2022/04/18 05:18:38;;;;;;;13.65;4.82;;;8.00;74.90;;;;;;5008660;28;20108;-73
2022/04/18 05:21:04;;;;;;;10.85;4.65;;;7.50;77.80;;;;;;4992908;28;20038;-73
2022/04/18 05:23:31;;;;;;;7.50;3.97;;;7.10;78.00;;;;;;5009499;28;20152;-72
2022/04/18 05:25:57;;;;;;;7.75;4.15;;;6.90;79.00;;;;;;5007855;28;20033;-72
2022/04/18 05:28:24;;;;;;;9.85;4.18;;;6.70;81.50;;;;;;4993045;28;20037;-73
2022/04/18 05:30:54;;;;;;;9.00;4.13;;;7.10;83.90;;;;;;5009590;28;20110;-72
2022/04/18 05:33:23;;;;;;;7.03;4.38;;;7.00;83.30;;;;;;5009661;28;20411;-73
2022/04/18 05:36:09;;;;;;;7.40;3.40;;;7.20;84.70;;;;;;5003934;28;20064;-72
2022/04/18 05:38:36;;;;;;;9.82;3.60;;;7.00;86.10;;;;;;4990794;28;20037;-72
2022/04/18 05:41:10;;;;;;;6.68;4.05;;;7.10;86.90;;;;;;4991190;28;20025;-73
2022/04/18 05:43:38;;;;;;;7.28;4.00;;;7.10;88.20;;;;;;4991117;28;20034;-72
2022/04/18 05:46:03;;;;;;;9.38;4.13;;;7.20;87.70;;;;;;5018727;28;20058;-72
2022/04/18 05:48:30;;;;;;;10.88;4.13;;;7.00;87.20;;;;;;5010499;28;20029;-71
2022/04/18 05:50:57;;;;;;;13.93;4.20;;;7.20;89.10;;;;;;5026741;28;20052;-71
2022/04/18 05:53:27;;;;;;;9.18;4.57;;;7.40;88.60;;;;;;5010381;28;20107;-73
2022/04/18 05:56:11;;;;;;;11.75;5.22;;;7.60;89.10;;;;;;5008376;28;20048;-73
2022/04/18 05:58:58;;;;;;;11.30;4.80;;;7.70;88.90;;;;;;5010523;28;20068;-72
2022/04/18 06:01:42;;;;;;;7.32;4.60;;;7.70;87.10;;;;;;5010869;28;20052;-71
2022/04/18 06:04:25;;;;;;;8.82;4.78;;;8.00;89.50;;;;;;5026092;28;20593;-72
2022/04/18 06:07:09;;;;;;;9.25;4.63;;;8.20;87.10;;;;;;5011036;28;20057;-73
2022/04/18 06:09:35;;;;;;;10.65;4.65;;;8.10;85.10;;;;;;5010919;28;20030;-72
2022/04/18 06:12:01;;;;;;;8.43;4.25;;;8.10;84.80;;;;;;5009466;28;20037;-72
2022/04/18 06:14:31;;;;;;;9.68;4.53;;;8.40;84.00;;;;;;5009327;28;20087;-69
2022/04/18 06:16:57;;;;;;;11.60;5.25;;;8.40;84.20;;;;;;5009378;28;20030;-72
2022/04/18 06:19:23;;;;;;;9.27;3.75;;;8.50;84.00;;;;;;5009248;28;20109;-73
2022/04/18 06:21:49;;;;;;;8.20;4.35;;;8.60;84.80;;;;;;5009316;28;20162;-73
2022/04/18 06:24:18;;;;;;;7.63;3.90;;;8.80;82.90;;;;;;5010254;28;20080;-72
2022/04/18 06:27:06;;;;;;;10.05;4.35;;;8.70;85.10;;;;;;5027493;28;20068;-73
2022/04/18 06:29:35;;;;;;;10.50;4.68;;;8.90;85.10;;;;;;4993674;28;20187;-73
2022/04/18 06:32:02;;;;;;;9.05;4.45;;;9.00;86.70;;;;;;5003583;28;20046;-72
2022/04/18 06:34:28;;;;;;;7.68;3.92;;;8.90;80.90;;;;;;5011976;28;20029;-72
2022/04/18 06:36:58;;;;;;;6.05;3.42;;;8.70;83.00;;;;;;4991544;28;20137;-72
2022/04/18 06:39:36;;;;;;;7.20;3.78;;;8.80;84.50;;;;;;4991522;28;20092;-73
2022/04/18 06:42:22;;;;;;;13.10;4.43;;;8.90;81.20;;;;;;4991136;28;20060;-72
2022/04/18 06:44:53;;;;;;;8.32;3.95;;;9.10;84.20;;;;;;5010373;28;20495;-72
2022/04/18 06:47:19;;;;;;;6.30;3.40;;;9.20;83.20;;;;;;5011080;28;20035;-72
2022/04/18 06:50:00;;;;;;;6.40;4.10;;;9.20;80.10;;;;;;5009639;28;20052;-72
2022/04/18 06:52:50;;;;;;;7.15;3.38;;;9.60;83.20;;;;;;5027350;28;20076;-72
2022/04/18 06:58:32;;;;;;;9.48;3.88;;;9.80;75.80;;;;;;5007197;28;20132;-73
2022/04/18 07:00:59;;;;;;;7.22;3.50;;;9.80;79.00;;;;;;4991437;28;20037;-72
2022/04/18 07:03:26;;;;;;;5.75;3.20;;;9.90;76.20;;;;;;4988732;28;20030;-73
2022/04/18 07:05:53;;;;;;;6.82;3.72;;;10.00;75.80;;;;;;4989076;28;20156;-73
2022/04/18 07:08:19;;;;;;;10.45;4.38;;;10.10;75.70;;;;;;4992778;28;20427;-73
2022/04/18 07:10:47;;;;;;;5.93;3.25;;;10.40;76.30;;;;;;5010330;28;20038;-72
2022/04/18 07:13:13;;;;;;;10.10;4.57;;;10.80;75.70;;;;;;5027709;28;20117;-72
2022/04/18 07:15:40;;;;;;;8.95;3.20;;;10.50;72.80;;;;;;5012328;28;20051;-72
2022/04/18 07:18:07;;;;;;;5.85;3.67;;;10.40;72.10;;;;;;5012244;28;20022;-72
2022/04/18 07:20:34;;;;;;;5.18;3.03;;;10.60;76.20;;;;;;5008877;28;20026;-73
2022/04/18 07:23:00;;;;;;;4.63;3.17;;;10.20;72.10;;;;;;4992427;28;20030;-73
2022/04/18 07:25:38;;;;;;;6.00;3.22;;;10.10;72.70;;;;;;4992648;28;20044;-73
2022/04/18 07:28:19;;;;;;;10.07;3.00;;;10.00;73.40;;;;;;4994366;28;20480;-71
2022/04/18 07:30:45;;;;;;;5.40;3.15;;;10.00;73.10;;;;;;5012237;28;20048;-71
2022/04/18 07:33:14;;;;;;;4.93;3.10;;;10.00;72.90;;;;;;5028403;28;20037;-73
2022/04/18 07:35:41;;;;;;;5.85;3.03;;;10.20;75.80;;;;;;5012314;28;20415;-73
2022/04/18 07:40:55;;;;;;;5.18;3.30;;;10.60;73.90;;;;;;5011448;28;20038;-71
2022/04/18 07:43:24;;;;;;;7.10;3.45;;;10.90;71.40;;;;;;5011816;28;20108;-73
2022/04/18 07:45:50;;;;;;;11.38;4.57;;;11.30;73.10;;;;;;5013622;28;20029;-73
2022/04/18 07:48:18;;;;;;;7.47;3.88;;;10.90;70.90;;;;;;5012436;28;20051;-73
2022/04/18 07:53:32;;;;;;;7.15;3.33;;;10.70;68.90;;;;;;5028123;28;20065;-72
2022/04/18 07:55:58;;;;;;;7.07;2.92;;;11.10;69.90;;;;;;5010581;28;20030;-73
2022/04/18 07:58:25;;;;;;;7.28;3.45;;;10.70;70.40;;;;;;5012029;28;20037;-73
2022/04/18 08:00:52;;;;;;;5.00;2.67;;;11.20;70.30;;;;;;5011378;28;20392;-72
2022/04/18 08:03:18;;;;;;;5.78;2.97;;;11.40;70.10;;;;;;5012268;28;20029;-73
2022/04/18 08:05:51;;;;;;;;;;;11.40;70.00;;;;;;5011815;28;20132;-72
2022/04/18 08:08:21;;;;;;;4.28;2.90;;;11.60;70.90;;;;;;5011668;28;19913;-73
2022/04/18 08:10:47;;;;;;;5.72;3.30;;;11.60;67.30;;;;;;5011748;28;20117;-72
2022/04/18 08:13:13;;;;;;;6.85;3.40;;;11.40;66.70;;;;;;5028063;28;20208;-73
2022/04/18 08:15:59;;;;;;;4.55;2.90;;;11.50;67.40;;;;;;5009548;28;20407;-73
2022/04/18 08:18:38;;;;;;;5.05;3.28;;;11.70;66.40;;;;;;4994288;28;20107;-72
2022/04/18 08:21:12;;;;;;;7.38;3.25;;;11.70;66.20;;;;;;4993838;28;20065;-73
2022/04/18 08:23:38;;;;;;;6.93;3.35;;;11.70;64.70;;;;;;4984011;28;20053;-72
2022/04/18 08:26:23;;;;;;;6.95;4.25;;;11.90;68.40;;;;;;4995292;28;20117;-72
2022/04/18 08:28:58;;;;;;;11.50;5.97;;;12.10;67.80;;;;;;4993195;28;20084;-71
2022/04/18 08:31:25;;;;;;;12.65;5.93;;;12.40;65.40;;;;;;4993558;28;20041;-72
2022/04/18 08:34:04;;;;;;;8.70;4.25;;;12.40;63.80;;;;;;5009719;28;20076;-72
2022/04/18 08:36:32;;;;;;;9.95;3.70;;;12.30;66.00;;;;;;4990202;28;20030;-73
2022/04/18 08:38:59;;;;;;;12.32;5.35;;;12.20;63.20;;;;;;5010144;28;20030;-73
2022/04/18 08:41:49;;;;;;;7.80;3.80;;;12.40;69.10;;;;;;4993443;28;20435;-72
2022/04/18 08:44:22;;;;;;;5.47;3.72;;;12.50;64.70;;;;;;4993492;28;20128;-72
2022/04/18 08:46:51;;;;;;;7.78;4.32;;;12.60;65.90;;;;;;4981814;28;20053;-73
2022/04/18 08:54:56;;;;;;;7.15;3.95;;;13.20;66.50;;;;;;4991298;28;20408;-73
2022/04/18 08:57:22;;;;;;;8.93;4.07;;;13.40;62.40;;;;;;5008629;28;20028;-72
2022/04/18 08:59:48;;;;;;;7.78;4.20;;;13.20;61.90;;;;;;5012338;28;20392;-73
2022/04/18 09:02:14;;;;;;;9.13;4.05;;;13.50;66.70;;;;;;5011009;28;20022;-72
2022/04/18 09:05:00;;;;;;;9.93;3.58;;;13.90;65.00;;;;;;5011494;28;20499;-72
2022/04/18 09:07:27;;;;;;;8.40;4.30;;;14.30;63.90;;;;;;5012410;28;20037;-72
2022/04/18 09:09:56;;;;;;;9.63;4.30;;;14.20;61.00;;;;;;5026678;28;20514;-69
2022/04/18 09:12:27;;;;;;;10.60;4.47;;;13.90;59.90;;;;;;5027553;28;20029;-73
2022/04/18 09:15:41;;;;;;;6.65;3.75;;;14.30;64.10;;;;;;5010970;28;20048;-72
2022/04/18 09:18:19;;;;;;;8.10;3.88;;;14.30;61.70;;;;;;5026432;28;20109;-73
2022/04/18 09:20:55;;;;;;;4.40;2.70;;;14.30;58.60;;;;;;5010188;28;20034;-73
2022/04/18 09:23:24;;;;;;;5.93;2.53;;;14.10;55.00;;;;;;5009303;28;20045;-72
2022/04/18 09:25:58;;;;;;;4.60;2.08;;;13.60;54.30;;;;;;5009705;28;20061;-73
2022/04/18 09:28:33;;;;;;;5.30;2.63;;;13.40;52.80;;;;;;5010112;28;20087;-73
2022/04/18 09:31:13;;;;;;;5.43;2.75;;;13.30;53.50;;;;;;5010304;28;20120;-73
2022/04/18 09:33:46;;;;;;;5.32;2.70;;;13.40;54.20;;;;;;5009530;28;20038;-73
2022/04/18 09:36:18;;;;;;;4.38;3.00;;;13.80;54.90;;;;;;5011191;28;20376;-71
2022/04/18 09:38:49;;;;;;;4.10;2.38;;;14.00;56.10;;;;;;5010490;28;20052;-73
2022/04/18 09:41:32;;;;;;;4.68;2.13;;;13.70;54.90;;;;;;5011524;28;20389;-71
2022/04/18 09:44:09;;;;;;;6.90;3.85;;;13.40;53.10;;;;;;5009625;28;20057;-70
2022/04/18 09:46:41;;;;;;;4.75;2.70;;;13.20;54.30;;;;;;5008923;28;20092;-73
2022/04/18 09:49:40;;;;;;;7.82;4.07;;;12.70;53.80;;;;;;5009632;28;20492;-73
2022/04/18 09:52:20;;;;;;;9.52;5.32;;;12.40;53.70;;;;;;5010189;28;20037;-72
2022/04/18 09:54:50;;;;;;;9.13;4.85;;;12.40;53.60;;;;;;5010577;28;20038;-68
2022/04/18 09:57:21;;;;;;;10.65;4.50;;;12.40;55.10;;;;;;5010450;28;20060;-72
2022/04/18 09:59:50;;;;;;;6.60;2.85;;;12.60;53.70;;;;;;5011557;28;20117;-68
2022/04/18 10:02:16;;;;;;;42.08;19.08;;;12.90;54.50;;;;;;5011395;28;20032;-71
2022/04/18 10:04:43;;;;;;;100.85;48.30;;;12.70;52.00;;;;;;5010127;28;20041;-65
2022/04/18 10:07:10;;;;;;;7.60;4.03;;;12.50;52.50;;;;;;5011152;28;20033;-65
2022/04/18 10:09:41;;;;;;;15.27;6.35;;;12.70;54.50;;;;;;5010086;28;20433;-69
2022/04/18 10:12:12;;;;;;;4.28;2.45;;;12.70;51.90;;;;;;5010506;28;20018;-73
2022/04/18 10:14:40;;;;;;;5.05;2.10;;;12.40;50.50;;;;;;5011264;28;20036;-66
2022/04/18 10:17:11;;;;;;;3.78;2.03;;;12.60;53.10;;;;;;5010625;28;20020;-65
2022/04/18 10:19:57;;;;;;;3.33;2.13;;;12.50;51.00;;;;;;5011107;28;20037;-70
2022/04/18 10:23:06;;;;;;;5.63;2.22;;;12.80;53.30;;;;;;5011219;28;20491;-67
2022/04/18 10:25:53;;;;;;;4.80;2.42;;;12.60;50.20;;;;;;5028224;28;20053;-73
2022/04/18 10:28:23;;;;;;;2.72;2.10;;;13.00;52.80;;;;;;5026563;28;20591;-72
2022/04/18 10:30:58;;;;;;;3.95;2.15;;;13.00;52.00;;;;;;5026978;28;20068;-73
2022/04/18 10:33:24;;;;;;;3.83;1.90;;;13.30;51.70;;;;;;5023963;28;20034;-72
2022/04/18 10:35:55;;;;;;;4.38;2.28;;;13.50;51.30;;;;;;5022479;28;20033;-67
2022/04/18 10:38:24;;;;;;;4.40;1.98;;;13.20;49.60;;;;;;5026503;28;20392;-73
2022/04/18 10:40:49;;;;;;;5.07;2.15;;;13.20;50.80;;;;;;5026308;28;20045;-66
2022/04/18 10:43:15;;;;;;;5.25;2.05;;;12.80;49.60;;;;;;5027751;28;20053;-72
2022/04/18 10:45:41;;;;;;;5.10;2.47;;;13.10;51.60;;;;;;5029239;28;20103;-72
2022/04/18 10:48:08;;;;;;;3.83;2.22;;;13.20;51.10;;;;;;5029708;28;20038;-67
2022/04/18 10:50:37;;;;;;;3.65;2.35;;;13.00;50.10;;;;;;5024451;28;20164;-71
2022/04/18 10:53:15;;;;;;;18.90;7.63;;;12.80;50.50;;;;;;5028435;28;20594;-72
2022/04/18 10:55:53;;;;;;;11.57;3.53;;;12.80;51.10;;;;;;5026793;28;20306;-64
2022/04/18 10:58:29;;;;;;;4.07;2.55;;;12.80;50.50;;;;;;5026032;28;20033;-73
2022/04/18 11:01:00;;;;;;;10.13;4.13;;;12.70;48.80;;;;;;5012405;28;20048;-71
2022/04/18 11:03:35;;;;;;;5.70;2.15;;;13.00;49.60;;;;;;5000721;28;20459;-73
2022/04/18 11:06:24;;;;;;;2.47;1.67;;;13.10;51.50;;;;;;5008301;28;20267;-70
2022/04/18 11:09:20;;;;;;;5.25;2.50;;;13.00;49.80;;;;;;5003523;28;20049;-72
2022/04/18 11:12:01;;;;;;;5.88;3.40;;;12.80;48.80;;;;;;4972277;28;20050;-70
2022/04/18 11:14:29;;;;;;;14.18;5.20;;;12.80;50.10;;;;;;4970070;28;20054;-72
2022/04/18 11:17:02;;;;;;;5.03;2.58;;;12.80;50.90;;;;;;4969929;28;20039;-72
2022/04/18 11:19:36;;;;;;;3.88;1.90;;;12.60;50.40;;;;;;4969955;28;20031;-72
2022/04/18 11:22:07;;;;;;;7.60;2.25;;;12.70;48.40;;;;;;4970478;28;20039;-70
2022/04/18 11:24:35;;;;;;;7.40;2.80;;;12.60;50.20;;;;;;4970904;28;20042;-72
2022/04/18 11:27:16;;;;;;;4.57;2.22;;;12.90;49.10;;;;;;4971119;28;20015;-72
2022/04/18 11:29:45;;;;;;;6.00;2.70;;;13.20;48.10;;;;;;4960987;28;20043;-71
2022/04/18 11:32:19;;;;;;;8.13;2.85;;;13.70;47.70;;;;;;4972347;28;20023;-71
2022/04/18 11:34:47;;;;;;;3.13;1.92;;;13.60;50.80;;;;;;4971500;28;20089;-72
2022/04/18 11:37:22;;;;;;;4.95;2.67;;;13.70;49.20;;;;;;4971876;28;20126;-71
2022/04/18 11:39:49;;;;;;;15.90;3.22;;;13.70;49.70;;;;;;4970068;28;20030;-72
2022/04/18 11:42:20;;;;;;;3.95;1.90;;;13.50;50.30;;;;;;4969742;28;20042;-72
2022/04/18 11:44:48;;;;;;;6.43;3.42;;;13.20;49.90;;;;;;4971287;28;20085;-69
2022/04/18 11:47:16;;;;;;;6.32;3.13;;;13.30;50.90;;;;;;4976284;28;20038;-69
2022/04/18 11:49:45;;;;;;;2.97;2.05;;;13.60;50.60;;;;;;5016306;28;20536;-71
2022/04/18 11:52:36;;;;;;;6.97;2.40;;;13.10;48.80;;;;;;5022410;28;20030;-72
2022/04/18 11:55:11;;;;;;;3.90;1.80;;;13.20;49.40;;;;;;5001725;28;20038;-70
2022/04/18 11:57:38;;;;;;;4.90;1.60;;;13.40;51.30;;;;;;5013436;28;20026;-72
2022/04/18 12:00:07;;;;;;;3.30;1.60;;;13.20;49.00;;;;;;5013215;28;20025;-73
2022/04/18 12:08:10;;;;;;;4.57;1.55;;;13.60;49.30;;;;;;5013249;28;20029;-72
2022/04/18 12:10:39;;;;;;;4.80;1.90;;;13.90;48.80;;;;;;5013029;28;20034;-72
2022/04/18 12:13:09;;;;;;;3.08;1.92;;;13.90;49.10;;;;;;5012797;28;20026;-72
2022/04/18 12:15:36;;;;;;;3.97;1.52;;;13.80;47.10;;;;;;5012909;28;20472;-73
2022/04/18 12:18:14;;;;;;;3.10;1.60;;;13.80;49.50;;;;;;5012980;28;20022;-71
2022/04/18 12:20:51;;;;;;;2.92;2.10;;;13.70;47.20;;;;;;5012703;28;20030;-72
2022/04/18 12:23:26;;;;;;;2.65;1.35;;;13.20;47.80;;;;;;5012600;28;20030;-72
2022/04/18 12:25:54;;;;;;;2.03;1.60;;;13.00;47.40;;;;;;5012953;28;20041;-72
2022/04/18 12:28:25;;;;;;;1.98;1.73;;;13.20;48.10;;;;;;5012727;28;20026;-71
2022/04/18 12:30:52;;;;;;;7.38;2.50;;;13.60;48.20;;;;;;5012601;28;20089;-69
2022/04/18 12:33:20;;;;;;;19.25;5.63;;;13.60;49.30;;;;;;5013219;28;20018;-71
2022/04/18 12:35:48;;;;;;;8.25;3.60;;;13.60;49.40;;;;;;5012452;28;20026;-72
2022/04/18 12:38:16;;;;;;;4.00;1.83;;;13.30;47.20;;;;;;5012821;28;20021;-72
2022/04/18 12:40:46;;;;;;;4.35;1.83;;;13.30;48.00;;;;;;5012643;28;20040;-72
2022/04/18 12:43:17;;;;;;;3.15;1.73;;;13.10;47.50;;;;;;5012741;28;20273;-72
2022/04/18 12:45:47;;;;;;;2.33;1.45;;;13.10;46.80;;;;;;5012589;28;20042;-71
2022/04/18 12:48:14;;;;;;;11.27;3.10;;;13.10;47.40;;;;;;5012364;28;20029;-72
2022/04/18 12:50:40;;;;;;;2.75;1.58;;;13.20;48.50;;;;;;5012191;28;20061;-72
2022/04/18 12:53:07;;;;;;;7.28;1.40;;;13.00;47.60;;;;;;5012565;28;20026;-70
2022/04/18 12:55:33;;;;;;;5.35;1.60;;;12.90;47.90;;;;;;5012755;28;20112;-71
2022/04/18 12:58:00;;;;;;;2.58;1.35;;;12.70;49.50;;;;;;5011900;28;20029;-69
2022/04/18 13:00:36;;;;;;;3.38;1.13;;;12.70;48.30;;;;;;5012290;28;20045;-72
2022/04/18 13:03:07;;;;;;;2.65;1.40;;;12.70;47.90;;;;;;5012324;28;20041;-71
2022/04/18 13:05:42;;;;;;;3.33;1.75;;;12.80;50.10;;;;;;5011828;28;20079;-71
2022/04/18 13:08:09;;;;;;;2.08;1.33;;;12.80;50.80;;;;;;5011254;28;20079;-72
2022/04/18 13:10:36;;;;;;;7.93;3.20;;;12.50;50.80;;;;;;5011872;28;20044;-70
2022/04/18 13:13:11;;;;;;;10.85;4.07;;;12.30;52.00;;;;;;5011477;28;20018;-69
2022/04/18 13:15:39;;;;;;;7.50;3.33;;;12.20;54.00;;;;;;5011984;28;20085;-70
2022/04/18 13:18:18;;;;;;;13.73;3.60;;;11.70;55.50;;;;;;5011868;28;20033;-72
2022/04/18 13:20:45;;;;;;;4.50;2.20;;;11.80;55.10;;;;;;5011557;28;20026;-72
2022/04/18 13:23:11;;;;;;;24.20;7.05;;;11.80;55.10;;;;;;5011702;28;20021;-72
2022/04/18 13:25:39;;;;;;;3.17;1.90;;;11.90;56.60;;;;;;5011571;28;20026;-72
2022/04/18 13:28:15;;;;;;;8.48;2.60;;;11.90;53.40;;;;;;5012058;28;20052;-71
2022/04/18 13:30:43;;;;;;;8.18;3.05;;;12.10;54.40;;;;;;5011770;28;20045;-72
2022/04/18 13:33:10;;;;;;;3.85;2.08;;;12.50;53.40;;;;;;5011899;28;20379;-71
2022/04/18 13:36:30;;;;;;;3.40;1.95;;;12.50;52.70;;;;;;5011503;28;20088;-72
2022/04/18 13:38:24;;;;;;;3.03;1.65;;;12.70;53.90;;;;;;5011296;28;20119;-70
2022/04/18 13:40:51;;;;;;;1.67;1.10;;;13.10;54.50;;;;;;5011692;28;20029;-70
2022/04/18 13:43:17;;;;;;;2.97;2.03;;;12.80;52.10;;;;;;5011732;28;20048;-72